createdAt,value
2019-03-13T00:00:21.488Z,95131.63
2019-03-13T00:02:51.750Z,95132.46
2019-03-13T00:05:21.981Z,95124.92
2019-03-13T00:07:52.094Z,95122.51
2019-03-13T00:10:22.433Z,95135.43
2019-03-13T00:12:52.720Z,95125.69
2019-03-13T00:15:22.845Z,95129.00
2019-03-13T00:17:53.175Z,95125.48
2019-03-13T00:20:23.400Z,95129.03
2019-03-13T00:22:53.510Z,95126.08
2019-03-13T00:25:23.622Z,95122.98
2019-03-13T00:27:53.837Z,95127.02
2019-03-13T00:30:24.062Z,95120.06
2019-03-13T00:32:54.202Z,94921.75
2019-03-13T00:35:24.318Z,95126.09
2019-03-13T00:37:54.528Z,95126.32
2019-03-13T00:40:24.752Z,95122.61
2019-03-13T00:42:54.761Z,95110.28
2019-03-13T00:45:24.763Z,95106.05
2019-03-13T00:47:54.982Z,95111.23
2019-03-13T00:50:27.452Z,95109.45
2019-03-13T00:52:57.650Z,95117.01
2019-03-13T00:55:27.872Z,95115.95
2019-03-13T00:57:57.904Z,95113.19
2019-03-13T01:01:02.238Z,95114.39
2019-03-13T01:03:43.051Z,95119.39
2019-03-13T01:06:17.612Z,95121.56
2019-03-13T01:08:47.726Z,95120.69
2019-03-13T01:11:17.881Z,95119.45
2019-03-13T01:13:48.533Z,95117.20
2019-03-13T01:16:18.758Z,95111.73
2019-03-13T01:18:48.768Z,95109.74
2019-03-13T01:21:18.961Z,95105.45
2019-03-13T01:23:49.167Z,95107.49
2019-03-13T01:26:19.376Z,95106.43
2019-03-13T01:28:49.375Z,95110.94
2019-03-13T01:31:29.701Z,95103.79
2019-03-13T01:34:17.573Z,95110.52
2019-03-13T01:36:47.574Z,95108.55
2019-03-13T01:39:17.789Z,95112.42
2019-03-13T01:41:48.019Z,95115.70
2019-03-13T01:44:18.133Z,95114.38
2019-03-13T01:46:48.260Z,95112.98
2019-03-13T01:49:18.471Z,95113.50
2019-03-13T01:51:48.718Z,95110.16
2019-03-13T01:54:18.745Z,95114.02
2019-03-13T01:56:48.841Z,95121.14
2019-03-13T01:59:19.052Z,95126.52
2019-03-13T02:01:49.279Z,95125.91
2019-03-13T02:04:19.399Z,95116.62
2019-03-13T02:06:49.433Z,95116.52
2019-03-13T02:09:19.658Z,95130.70
2019-03-13T02:11:49.899Z,95132.11
2019-03-13T02:14:20.006Z,95128.97
2019-03-13T02:16:50.213Z,95131.19
2019-03-13T02:19:20.220Z,95130.25
2019-03-13T02:21:50.336Z,95134.20
2019-03-13T02:24:20.573Z,95138.30
2019-03-13T02:26:50.794Z,95143.09
2019-03-13T02:29:20.706Z,95144.17
2019-03-13T02:31:50.812Z,95149.53
2019-03-13T02:34:21.053Z,95161.70
2019-03-13T02:36:51.309Z,95154.02
2019-03-13T02:39:21.315Z,95162.44
2019-03-13T02:41:51.445Z,95174.48
2019-03-13T02:44:21.702Z,95180.23
2019-03-13T02:46:51.917Z,95183.33
2019-03-13T02:49:22.043Z,95184.57
2019-03-13T02:51:52.045Z,95181.63
2019-03-13T02:54:22.260Z,95180.43
2019-03-13T02:56:52.483Z,95196.91
2019-03-13T02:59:22.597Z,95203.75
2019-03-13T03:01:57.735Z,95191.41
2019-03-13T03:04:27.960Z,95196.39
2019-03-13T03:06:58.175Z,95201.34
2019-03-13T03:09:28.079Z,95207.91
2019-03-13T03:11:58.532Z,95211.20
2019-03-13T03:14:28.892Z,95209.26
2019-03-13T03:16:59.117Z,95214.36
2019-03-13T03:19:29.247Z,95215.33
2019-03-13T03:21:59.260Z,95218.20
2019-03-13T03:24:29.447Z,95215.58
2019-03-13T03:26:59.664Z,95226.42
2019-03-13T03:29:29.563Z,95221.80
2019-03-13T03:31:59.683Z,95223.51
2019-03-13T03:34:29.915Z,95227.06
2019-03-13T03:37:00.007Z,95223.38
2019-03-13T03:39:30.455Z,95231.95
2019-03-13T03:42:00.694Z,95238.97
2019-03-13T03:44:30.698Z,95239.34
2019-03-13T03:47:00.931Z,95239.74
2019-03-13T03:49:31.193Z,95244.50
2019-03-13T03:52:01.415Z,95243.23
2019-03-13T03:54:31.428Z,95242.67
2019-03-13T03:57:01.540Z,95239.84
2019-03-13T03:59:31.757Z,95251.12
2019-03-13T04:02:01.957Z,95239.39
2019-03-13T04:04:31.962Z,95251.70
2019-03-13T04:07:02.364Z,95249.95
2019-03-13T04:09:32.572Z,95259.27
2019-03-13T04:12:03.325Z,95255.42
2019-03-13T04:14:33.426Z,95251.39
2019-03-13T04:17:03.645Z,95255.38
2019-03-13T04:19:33.655Z,95259.94
2019-03-13T04:22:03.680Z,95262.05
2019-03-13T04:24:33.899Z,95261.50
2019-03-13T04:27:04.136Z,95274.24
2019-03-13T04:29:34.154Z,95276.73
2019-03-13T04:32:04.249Z,95275.18
2019-03-13T04:34:34.455Z,95281.25
2019-03-13T04:37:04.659Z,95281.77
2019-03-13T04:39:34.665Z,95275.66
2019-03-13T04:42:04.818Z,95282.20
2019-03-13T04:44:35.084Z,95280.89
2019-03-13T04:47:05.297Z,95282.45
2019-03-13T04:49:35.352Z,95285.20
2019-03-13T04:52:05.379Z,95283.81
2019-03-13T04:54:35.586Z,95281.63
2019-03-13T04:57:05.597Z,95287.69
2019-03-13T04:59:35.812Z,95287.14
2019-03-13T05:02:06.041Z,95291.72
2019-03-13T05:04:35.984Z,95291.44
2019-03-13T05:07:06.099Z,95287.80
2019-03-13T05:09:38.483Z,95299.52
2019-03-13T05:12:09.381Z,95292.20
2019-03-13T05:14:40.628Z,95296.92
2019-03-13T05:17:10.655Z,95295.80
2019-03-13T05:19:40.985Z,95299.33
2019-03-13T05:22:11.210Z,95303.33
2019-03-13T05:24:41.221Z,95305.08
2019-03-13T05:27:11.343Z,95308.92
2019-03-13T05:29:41.552Z,95310.30
2019-03-13T05:32:11.754Z,95307.84
2019-03-13T05:34:41.654Z,95295.51
2019-03-13T05:37:11.868Z,95308.83
2019-03-13T05:39:41.923Z,95303.16
2019-03-13T05:42:11.818Z,95317.38
2019-03-13T05:44:42.047Z,95310.68
2019-03-13T05:47:12.250Z,95310.00
2019-03-13T05:49:42.360Z,95317.56
2019-03-13T05:52:12.471Z,95316.31
2019-03-13T05:54:42.701Z,95320.70
2019-03-13T05:57:12.931Z,95322.72
2019-03-13T05:59:42.953Z,95332.72
2019-03-13T06:02:12.950Z,95331.93
2019-03-13T06:04:43.172Z,95329.62
2019-03-13T06:07:13.373Z,95325.38
2019-03-13T06:09:43.301Z,95331.57
2019-03-13T06:12:13.739Z,95335.32
2019-03-13T06:14:43.956Z,95332.81
2019-03-13T06:17:14.209Z,95342.64
2019-03-13T06:19:44.436Z,95339.46
2019-03-13T06:22:14.774Z,95324.22
2019-03-13T06:24:44.892Z,95338.14
2019-03-13T06:27:14.900Z,95332.00
2019-03-13T06:29:45.107Z,95324.97
2019-03-13T06:32:15.336Z,95330.34
2019-03-13T06:34:45.374Z,95338.05
2019-03-13T06:37:15.527Z,95330.20
2019-03-13T06:39:45.863Z,95339.30
2019-03-13T06:42:16.107Z,95335.89
2019-03-13T06:44:46.129Z,95329.25
2019-03-13T06:47:16.429Z,95327.80
2019-03-13T06:49:46.651Z,95322.00
2019-03-13T06:52:16.874Z,95317.16
2019-03-13T06:54:46.886Z,95319.55
2019-03-13T06:57:17.120Z,95310.83
2019-03-13T07:00:24.405Z,95308.25
2019-03-13T07:03:16.050Z,95305.77
2019-03-13T07:06:08.067Z,95307.10
2019-03-13T07:09:15.611Z,95306.02
2019-03-13T07:12:22.751Z,95299.76
2019-03-13T07:15:12.007Z,95309.25
